Time;durP1;ratioP1;P1;durP2;ratioP2;P2;SDS_P1;SDS_P2;PMS_P1;PMS_P2;Temp;Humidity;BMP_temperature;BMP_pressure;BME280_temperature;BME280_humidity;BME280_pressure;Samples;Min_cycle;Max_cycle;Signal;HPM_P1;HPM_P2
2021/07/05 00:02:24;;;;;;;7.18;4.80;;;19.30;88.70;;;;;;5071874;28;20051;-88
2021/07/05 00:04:50;;;;;;;8.57;5.68;;;19.30;88.70;;;;;;5072593;28;20419;-87
2021/07/05 00:07:17;;;;;;;5.20;4.20;;;19.30;88.80;;;;;;5072555;28;20055;-87
2021/07/05 00:09:43;;;;;;;9.23;6.75;;;19.20;88.60;;;;;;5072811;28;20052;-88
2021/07/05 00:12:09;;;;;;;8.65;6.10;;;19.20;88.90;;;;;;5072254;28;20064;-87
2021/07/05 00:14:36;;;;;;;10.68;6.55;;;19.20;89.20;;;;;;5072898;28;20045;-89
2021/07/05 00:17:02;;;;;;;8.50;5.80;;;19.20;89.50;;;;;;5072653;28;20056;-89
2021/07/05 00:19:28;;;;;;;8.85;5.90;;;19.20;89.00;;;;;;5072123;28;20553;-87
2021/07/05 00:21:54;;;;;;;10.32;6.85;;;19.20;89.10;;;;;;5072859;28;20048;-88
2021/07/05 00:24:20;;;;;;;8.18;5.82;;;19.20;89.00;;;;;;5072658;28;20048;-87
2021/07/05 00:26:46;;;;;;;7.20;5.07;;;19.20;89.20;;;;;;5070823;28;20057;-89
2021/07/05 00:29:13;;;;;;;9.52;6.22;;;19.10;89.10;;;;;;5072833;28;20131;-89
2021/07/05 00:31:39;;;;;;;11.85;6.68;;;19.20;89.40;;;;;;5071725;28;20056;-87
2021/07/05 00:34:05;;;;;;;7.70;6.25;;;19.10;89.60;;;;;;5071944;28;20464;-87
2021/07/05 00:36:30;;;;;;;8.13;5.93;;;19.10;89.50;;;;;;5071600;28;20139;-87
2021/07/05 00:38:56;;;;;;;7.97;5.53;;;19.10;89.60;;;;;;5071455;28;20080;-86
2021/07/05 00:41:22;;;;;;;8.05;6.18;;;19.10;90.10;;;;;;5071230;28;20048;-87
2021/07/05 00:43:48;;;;;;;7.68;6.00;;;19.10;89.80;;;;;;5072017;28;20487;-87
2021/07/05 00:46:13;;;;;;;7.65;5.80;;;19.00;89.70;;;;;;5070966;28;20109;-86
2021/07/05 00:48:39;;;;;;;10.65;6.28;;;19.00;89.80;;;;;;5070121;28;20127;-86
2021/07/05 00:51:04;;;;;;;7.50;5.22;;;19.00;90.00;;;;;;5070897;28;20087;-86
2021/07/05 00:53:31;;;;;;;7.55;5.50;;;19.00;89.60;;;;;;5071334;28;20151;-87
2021/07/05 00:55:56;;;;;;;7.43;5.75;;;18.90;89.50;;;;;;5072095;28;20220;-86
2021/07/05 00:58:22;;;;;;;9.88;5.80;;;18.90;89.50;;;;;;5071583;28;20136;-87
2021/07/05 01:00:48;;;;;;;7.85;5.32;;;18.90;89.80;;;;;;5070684;28;20056;-86
2021/07/05 01:03:14;;;;;;;8.50;5.10;;;18.90;89.90;;;;;;5072008;28;20131;-86
2021/07/05 01:05:39;;;;;;;7.80;5.85;;;18.90;89.60;;;;;;5072018;28;20597;-86
2021/07/05 01:08:05;;;;;;;6.88;5.18;;;18.90;89.50;;;;;;5072292;28;20407;-86
2021/07/05 01:10:31;;;;;;;6.35;4.80;;;18.80;89.70;;;;;;5075615;28;20437;-86
2021/07/05 01:12:58;;;;;;;7.40;5.13;;;18.90;89.50;;;;;;5074594;28;20131;-86
2021/07/05 01:15:28;;;;;;;8.63;6.13;;;18.90;89.80;;;;;;5075086;28;20056;-87
2021/07/05 01:17:56;;;;;;;7.38;5.32;;;18.90;89.80;;;;;;5076282;28;20177;-87
2021/07/05 01:20:28;;;;;;;6.55;4.95;;;18.90;89.70;;;;;;5075785;28;20052;-87
2021/07/05 01:22:54;;;;;;;7.40;5.32;;;18.90;89.50;;;;;;5075606;28;20114;-87
2021/07/05 01:25:24;;;;;;;7.05;5.10;;;18.80;88.90;;;;;;5076187;28;20075;-86
2021/07/05 01:27:50;;;;;;;9.00;5.53;;;18.80;89.20;;;;;;5075556;28;20495;-87
2021/07/05 01:30:18;;;;;;;8.27;5.95;;;18.90;89.50;;;;;;5075448;28;20098;-87
2021/07/05 01:32:47;;;;;;;6.72;5.22;;;18.80;89.00;;;;;;5076206;28;20534;-90
2021/07/05 01:35:14;;;;;;;7.93;6.00;;;18.80;89.00;;;;;;5075746;28;20123;-86
2021/07/05 01:37:40;;;;;;;6.88;5.05;;;18.80;89.00;;;;;;5073778;28;20411;-87
2021/07/05 01:40:08;;;;;;;6.18;5.07;;;18.80;89.20;;;;;;5075525;28;20136;-87
2021/07/05 01:42:34;;;;;;;6.65;4.97;;;18.70;89.40;;;;;;5074934;28;20048;-85
2021/07/05 01:45:02;;;;;;;7.30;5.45;;;18.70;89.00;;;;;;5075585;28;20049;-86
2021/07/05 01:47:28;;;;;;;7.45;4.90;;;18.70;89.20;;;;;;5073719;28;20056;-86
2021/07/05 01:49:53;;;;;;;6.88;4.65;;;18.70;89.00;;;;;;5074912;28;20040;-87
2021/07/05 01:52:19;;;;;;;7.07;4.97;;;18.70;88.40;;;;;;5074767;28;20059;-86
2021/07/05 01:54:45;;;;;;;7.68;4.95;;;18.70;88.50;;;;;;5073928;28;20131;-87
2021/07/05 01:57:24;;;;;;;6.80;4.72;;;18.70;88.80;;;;;;5075367;28;20052;-87
2021/07/05 01:59:55;;;;;;;6.03;5.10;;;18.70;88.70;;;;;;5074654;28;20448;-86
2021/07/05 02:02:22;;;;;;;6.05;4.78;;;18.60;89.20;;;;;;5055364;28;20401;-86
2021/07/05 02:04:48;;;;;;;5.78;4.68;;;18.60;89.30;;;;;;5054568;28;20441;-86
2021/07/05 02:07:14;;;;;;;6.82;4.65;;;18.60;89.30;;;;;;5055422;28;20389;-87
2021/07/05 02:09:40;;;;;;;7.90;4.90;;;18.60;89.30;;;;;;5054849;28;20106;-87
2021/07/05 02:12:06;;;;;;;7.63;5.38;;;18.60;89.40;;;;;;5053929;28;20136;-86
2021/07/05 02:14:32;;;;;;;8.43;5.18;;;18.60;89.60;;;;;;5054034;28;20056;-86
2021/07/05 02:16:58;;;;;;;7.50;4.93;;;18.50;89.70;;;;;;5054706;28;20041;-87
2021/07/05 02:19:23;;;;;;;8.98;4.97;;;18.50;89.70;;;;;;5054472;28;20049;-86
2021/07/05 02:21:49;;;;;;;6.88;4.93;;;18.50;89.60;;;;;;5053255;28;20053;-86
2021/07/05 02:24:15;;;;;;;6.90;5.05;;;18.50;89.60;;;;;;5054371;28;20420;-86
2021/07/05 02:26:42;;;;;;;6.68;4.97;;;18.50;89.60;;;;;;5052948;28;20059;-86
2021/07/05 02:29:09;;;;;;;6.55;5.35;;;18.50;89.40;;;;;;5055116;28;20055;-87
2021/07/05 02:31:34;;;;;;;9.02;5.70;;;18.40;88.90;;;;;;5068923;28;20055;-86
2021/07/05 02:34:00;;;;;;;7.85;5.13;;;18.40;88.30;;;;;;5074642;28;20131;-86
2021/07/05 02:36:27;;;;;;;13.55;5.45;;;18.40;88.60;;;;;;5073878;28;20560;-85
2021/07/05 02:38:53;;;;;;;7.35;5.57;;;18.40;88.50;;;;;;5074120;28;20052;-88
2021/07/05 02:41:18;;;;;;;8.02;5.07;;;18.40;89.40;;;;;;5073533;28;20051;-87
2021/07/05 02:43:44;;;;;;;10.60;7.75;;;18.30;89.10;;;;;;5073470;28;20047;-87
2021/07/05 02:46:09;;;;;;;10.40;7.10;;;18.30;89.30;;;;;;5073175;28;20055;-86
2021/07/05 02:48:36;;;;;;;8.68;6.63;;;18.30;89.80;;;;;;5074248;28;20504;-87
2021/07/05 02:51:05;;;;;;;11.65;8.27;;;18.30;90.00;;;;;;5073631;28;20380;-87
2021/07/05 02:53:31;;;;;;;8.90;6.43;;;18.20;89.70;;;;;;5074197;28;20055;-87
2021/07/05 02:55:58;;;;;;;8.30;6.10;;;18.20;89.50;;;;;;5072885;28;20086;-86
2021/07/05 02:58:24;;;;;;;14.73;9.98;;;18.20;89.40;;;;;;5073689;28;20047;-86
2021/07/05 03:00:58;;;;;;;11.15;7.00;;;18.20;90.00;;;;;;5073400;28;20055;-87
2021/07/05 03:03:24;;;;;;;9.45;7.03;;;18.20;90.00;;;;;;5074310;28;20087;-86
2021/07/05 03:05:51;;;;;;;17.35;11.50;;;18.10;90.10;;;;;;5074218;28;20179;-85
2021/07/05 03:08:16;;;;;;;10.85;8.50;;;18.10;90.30;;;;;;5073787;28;20528;-86
2021/07/05 03:10:43;;;;;;;13.52;9.00;;;18.10;90.40;;;;;;5073954;28;20131;-87
2021/07/05 03:13:12;;;;;;;11.50;9.05;;;18.10;90.40;;;;;;5073349;28;20080;-86
2021/07/05 03:15:37;;;;;;;13.55;9.68;;;18.00;90.40;;;;;;5072641;28;20522;-85
2021/07/05 03:18:04;;;;;;;13.30;10.70;;;18.00;90.50;;;;;;5072612;28;20045;-85
2021/07/05 03:20:33;;;;;;;15.80;12.60;;;18.00;90.60;;;;;;5073323;28;20617;-85
2021/07/05 03:23:01;;;;;;;16.05;11.00;;;17.90;90.70;;;;;;5073510;28;20549;-85
2021/07/05 03:25:29;;;;;;;15.07;11.35;;;17.90;90.50;;;;;;5073795;28;20045;-85
2021/07/05 03:27:56;;;;;;;12.73;9.23;;;17.90;90.50;;;;;;5073677;28;20051;-86
2021/07/05 03:30:23;;;;;;;12.98;10.52;;;17.80;90.50;;;;;;5073228;28;20127;-86
2021/07/05 03:32:50;;;;;;;16.30;12.95;;;17.80;90.60;;;;;;5072851;28;20090;-86
2021/07/05 03:35:17;;;;;;;15.02;11.15;;;17.80;90.80;;;;;;5073754;28;20045;-85
2021/07/05 03:37:43;;;;;;;14.20;10.45;;;17.80;90.90;;;;;;5072690;28;20381;-86
2021/07/05 03:40:13;;;;;;;14.93;12.60;;;17.80;90.90;;;;;;5072943;28;20094;-86
2021/07/05 03:42:38;;;;;;;18.35;15.35;;;17.80;90.80;;;;;;5072846;28;20436;-86
2021/07/05 03:45:07;;;;;;;20.05;15.60;;;17.80;91.00;;;;;;5072668;28;20072;-85
2021/07/05 03:47:33;;;;;;;17.38;14.60;;;17.80;91.10;;;;;;5071752;28;20052;-87
2021/07/05 03:49:58;;;;;;;20.65;14.55;;;17.80;91.20;;;;;;5073216;28;20499;-86
2021/07/05 03:52:24;;;;;;;16.85;11.38;;;17.80;91.10;;;;;;5072020;28;20045;-86
2021/07/05 03:54:50;;;;;;;13.90;11.38;;;17.80;90.80;;;;;;5071197;28;20385;-88
2021/07/05 03:57:22;;;;;;;12.63;11.25;;;17.70;90.80;;;;;;5071901;28;20044;-87
2021/07/05 03:59:49;;;;;;;12.63;10.60;;;17.70;90.70;;;;;;5072344;28;20064;-87
2021/07/05 04:02:15;;;;;;;14.75;12.30;;;17.70;90.50;;;;;;5073051;28;20044;-87
2021/07/05 04:04:41;;;;;;;14.55;12.23;;;17.70;90.50;;;;;;5071438;28;20052;-88
2021/07/05 04:07:07;;;;;;;19.45;14.45;;;17.70;90.40;;;;;;5071566;28;20125;-88
2021/07/05 04:09:32;;;;;;;15.25;13.35;;;17.70;90.50;;;;;;5071200;28;20514;-87
2021/07/05 04:11:58;;;;;;;15.32;12.93;;;17.80;90.70;;;;;;5071854;28;20051;-87
2021/07/05 04:14:23;;;;;;;19.75;17.52;;;17.80;90.50;;;;;;5072661;28;20067;-86
2021/07/05 04:16:49;;;;;;;16.33;14.20;;;17.80;90.60;;;;;;5072680;28;20063;-88
2021/07/05 04:19:15;;;;;;;15.95;14.20;;;17.70;90.40;;;;;;5071860;28;20048;-87
2021/07/05 04:21:40;;;;;;;16.73;13.43;;;17.80;90.50;;;;;;5072802;28;20044;-86
2021/07/05 04:24:06;;;;;;;17.33;14.85;;;17.80;90.50;;;;;;5072879;28;20403;-87
2021/07/05 04:26:32;;;;;;;17.35;15.50;;;17.80;90.50;;;;;;5071733;28;20056;-87
2021/07/05 04:28:58;;;;;;;21.35;17.85;;;17.80;90.70;;;;;;5072705;28;20399;-87
2021/07/05 04:31:23;;;;;;;17.70;15.02;;;17.80;90.90;;;;;;5072617;28;20543;-88
2021/07/05 04:33:49;;;;;;;20.63;18.42;;;17.80;90.70;;;;;;5071848;28;20054;-87
2021/07/05 04:36:14;;;;;;;19.35;16.23;;;17.80;90.80;;;;;;5071846;28;20110;-86
2021/07/05 04:38:40;;;;;;;16.85;15.13;;;17.80;90.80;;;;;;5071931;28;20078;-86
2021/07/05 04:41:06;;;;;;;25.42;17.60;;;17.80;90.90;;;;;;5070171;28;20059;-86
2021/07/05 04:43:32;;;;;;;18.05;15.93;;;17.80;90.80;;;;;;5070573;28;20064;-87
2021/07/05 04:46:03;;;;;;;16.73;14.85;;;17.80;90.80;;;;;;5072301;28;20048;-87
2021/07/05 04:48:29;;;;;;;22.45;19.48;;;17.80;90.80;;;;;;5071761;28;20040;-87
2021/07/05 04:50:54;;;;;;;18.98;16.05;;;17.80;91.10;;;;;;5072277;28;20152;-87
2021/07/05 04:53:20;;;;;;;16.80;15.02;;;17.80;91.00;;;;;;5071788;28;20037;-87
2021/07/05 04:55:46;;;;;;;21.02;18.75;;;17.80;90.80;;;;;;5071646;28;20053;-87
2021/07/05 04:58:12;;;;;;;16.33;14.57;;;17.80;91.10;;;;;;5070569;28;20127;-87
2021/07/05 05:00:37;;;;;;;18.27;16.30;;;17.80;91.00;;;;;;5074206;28;20181;-87
2021/07/05 05:03:05;;;;;;;17.27;15.43;;;17.80;91.00;;;;;;5079456;28;20044;-88
2021/07/05 05:05:32;;;;;;;15.93;14.23;;;17.80;91.00;;;;;;5072617;28;20400;-87
2021/07/05 05:07:58;;;;;;;19.35;16.83;;;17.80;90.90;;;;;;5079160;28;20071;-87
2021/07/05 05:10:24;;;;;;;16.85;14.63;;;17.90;91.10;;;;;;5079933;28;20049;-87
2021/07/05 05:12:50;;;;;;;15.52;13.90;;;17.90;91.00;;;;;;5080714;28;20043;-87
2021/07/05 05:15:17;;;;;;;18.17;16.27;;;17.90;90.90;;;;;;5082502;28;20499;-87
2021/07/05 05:17:44;;;;;;;17.83;15.45;;;17.90;91.00;;;;;;5077512;28;20044;-86
2021/07/05 05:20:11;;;;;;;17.15;14.88;;;17.90;91.00;;;;;;5071679;28;20047;-85
2021/07/05 05:22:38;;;;;;;15.68;14.07;;;17.90;91.00;;;;;;5071621;28;20059;-85
2021/07/05 05:25:07;;;;;;;17.90;16.02;;;17.90;90.90;;;;;;5071311;28;20106;-86
2021/07/05 05:27:33;;;;;;;19.00;15.98;;;17.90;91.20;;;;;;5072379;28;20131;-86
2021/07/05 05:29:59;;;;;;;18.75;16.67;;;17.90;91.30;;;;;;5072080;28;20071;-86
2021/07/05 05:32:25;;;;;;;17.52;15.50;;;17.90;91.30;;;;;;5072124;28;20049;-86
2021/07/05 05:34:50;;;;;;;18.63;15.55;;;18.00;91.30;;;;;;5072367;28;20053;-86
2021/07/05 05:37:16;;;;;;;18.00;14.73;;;18.00;91.30;;;;;;5071822;28;20443;-86
2021/07/05 05:39:42;;;;;;;16.73;14.98;;;17.90;91.30;;;;;;5071505;28;20055;-86
2021/07/05 05:42:07;;;;;;;16.92;14.80;;;18.00;91.40;;;;;;5071276;28;20102;-86
2021/07/05 05:44:33;;;;;;;18.23;15.63;;;17.90;91.40;;;;;;5062466;28;20476;-86
2021/07/05 05:46:59;;;;;;;18.63;14.77;;;17.90;91.80;;;;;;5068514;28;20056;-80
2021/07/05 05:49:25;;;;;;;18.65;15.65;;;17.90;91.40;;;;;;5071680;28;20098;-80
2021/07/05 05:51:51;;;;;;;14.73;13.23;;;17.90;91.50;;;;;;5069477;28;20411;-80
2021/07/05 05:54:16;;;;;;;17.02;15.02;;;17.90;91.30;;;;;;5071329;28;20209;-81
2021/07/05 05:56:43;;;;;;;14.25;12.77;;;17.90;91.40;;;;;;5074871;28;20067;-80
2021/07/05 05:59:10;;;;;;;15.07;12.65;;;17.90;91.20;;;;;;5076012;28;20079;-83
2021/07/05 06:01:38;;;;;;;14.80;13.23;;;17.90;91.10;;;;;;5075099;28;20052;-83
2021/07/05 06:04:04;;;;;;;13.77;12.38;;;17.90;91.10;;;;;;5075280;28;20123;-83
2021/07/05 06:06:32;;;;;;;16.65;13.63;;;17.90;91.00;;;;;;5075125;28;20056;-83
2021/07/05 06:08:58;;;;;;;18.98;14.77;;;17.90;91.10;;;;;;5068604;28;20087;-84
2021/07/05 06:11:24;;;;;;;15.05;12.38;;;17.90;91.30;;;;;;5074380;28;20072;-83
2021/07/05 06:13:50;;;;;;;17.90;15.20;;;17.90;91.30;;;;;;5074358;28;20053;-84
2021/07/05 06:16:15;;;;;;;14.57;12.73;;;17.90;91.40;;;;;;5073705;28;20906;-83
2021/07/05 06:18:41;;;;;;;16.55;14.40;;;17.90;91.30;;;;;;5073728;28;20074;-85
2021/07/05 06:21:08;;;;;;;16.33;14.43;;;17.90;91.40;;;;;;5090105;28;20080;-86
2021/07/05 06:23:33;;;;;;;17.02;14.20;;;17.90;91.50;;;;;;5074448;28;20044;-85
2021/07/05 06:26:02;;;;;;;15.18;13.52;;;17.90;91.50;;;;;;5074009;28;20048;-85
2021/07/05 06:28:30;;;;;;;12.98;11.57;;;17.90;91.50;;;;;;5074862;28;20044;-86
2021/07/05 06:30:57;;;;;;;16.58;14.57;;;17.90;91.40;;;;;;5075038;28;20563;-86
2021/07/05 06:33:23;;;;;;;15.38;13.82;;;17.90;91.50;;;;;;5074228;28;20484;-86
2021/07/05 06:35:50;;;;;;;15.43;13.70;;;17.90;91.60;;;;;;5073069;28;20048;-84
2021/07/05 06:38:18;;;;;;;15.90;13.40;;;17.90;91.70;;;;;;5074287;28;20048;-83
2021/07/05 06:40:44;;;;;;;15.73;12.90;;;17.90;91.80;;;;;;5073651;28;20056;-83
2021/07/05 06:43:12;;;;;;;12.25;10.85;;;17.90;91.80;;;;;;5072711;28;20052;-83
2021/07/05 06:45:38;;;;;;;15.48;10.32;;;17.80;91.70;;;;;;5073147;28;20048;-81
2021/07/05 06:48:04;;;;;;;12.90;11.43;;;17.80;91.70;;;;;;5072933;28;20106;-82
2021/07/05 06:50:30;;;;;;;14.57;10.27;;;17.80;91.70;;;;;;5073845;28;20056;-81
2021/07/05 06:52:56;;;;;;;13.35;9.07;;;17.70;91.80;;;;;;5074001;28;20062;-81
2021/07/05 06:55:22;;;;;;;10.73;7.38;;;17.70;91.80;;;;;;5075061;28;20049;-81
2021/07/05 06:57:47;;;;;;;13.43;10.40;;;17.70;91.70;;;;;;5073421;28;20045;-81
2021/07/05 07:00:17;;;;;;;13.27;10.25;;;17.70;91.60;;;;;;5072716;28;20059;-82
2021/07/05 07:02:43;;;;;;;11.00;9.75;;;17.70;91.60;;;;;;5067896;28;20052;-83
2021/07/05 07:05:12;;;;;;;11.18;9.40;;;17.60;91.50;;;;;;5073783;28;20071;-82
2021/07/05 07:07:39;;;;;;;10.23;7.55;;;17.60;91.50;;;;;;5067657;28;20124;-83
2021/07/05 07:10:06;;;;;;;9.77;8.30;;;17.70;91.40;;;;;;5074132;28;20067;-79
2021/07/05 07:12:35;;;;;;;11.18;8.32;;;17.70;91.40;;;;;;5073734;28;20097;-81
2021/07/05 07:15:02;;;;;;;9.77;7.95;;;17.60;91.40;;;;;;5072562;28;20492;-81
2021/07/05 07:17:39;;;;;;;10.15;6.35;;;17.70;91.30;;;;;;5073536;28;20135;-83
2021/07/05 07:20:07;;;;;;;7.60;5.80;;;17.60;91.20;;;;;;5073321;28;20055;-83
2021/07/05 07:22:34;;;;;;;7.35;3.83;;;17.60;91.00;;;;;;5072163;28;20044;-84
2021/07/05 07:24:59;;;;;;;8.52;6.70;;;17.60;91.00;;;;;;5073445;28;20883;-85
2021/07/05 07:27:25;;;;;;;8.15;6.53;;;17.60;91.00;;;;;;5073959;28;20106;-83
2021/07/05 07:29:51;;;;;;;7.88;5.03;;;17.60;91.00;;;;;;5072898;28;20047;-85
2021/07/05 07:32:17;;;;;;;9.18;6.80;;;17.60;90.90;;;;;;5072973;28;20480;-84
2021/07/05 07:34:43;;;;;;;9.15;6.25;;;17.70;91.00;;;;;;5073508;28;20059;-81
2021/07/05 07:37:09;;;;;;;7.68;6.25;;;17.60;91.10;;;;;;5073349;28;20068;-83
2021/07/05 07:39:46;;;;;;;7.70;5.60;;;17.60;91.10;;;;;;5072051;28;20052;-83
2021/07/05 07:42:12;;;;;;;7.43;5.70;;;17.60;91.00;;;;;;5065629;28;20044;-85
2021/07/05 07:44:37;;;;;;;7.82;3.60;;;17.70;91.10;;;;;;5072440;28;20062;-86
2021/07/05 07:47:04;;;;;;;7.07;3.42;;;17.70;91.10;;;;;;5072776;28;20468;-86
2021/07/05 07:49:31;;;;;;;8.60;4.38;;;17.60;91.00;;;;;;5072248;28;20076;-86
2021/07/05 07:52:01;;;;;;;6.07;3.47;;;17.60;91.10;;;;;;5073017;28;20052;-88
2021/07/05 07:54:27;;;;;;;6.68;4.28;;;17.60;91.00;;;;;;5072935;28;20044;-86
2021/07/05 07:56:53;;;;;;;6.53;3.10;;;17.60;91.10;;;;;;5072584;28;20044;-87
2021/07/05 07:59:19;;;;;;;5.32;2.47;;;17.50;91.10;;;;;;5072827;28;20044;-89
2021/07/05 08:01:46;;;;;;;8.45;4.35;;;17.50;91.00;;;;;;5072855;28;20049;-88
2021/07/05 08:04:11;;;;;;;7.50;3.00;;;17.40;91.20;;;;;;5072270;28;20151;-88
2021/07/05 08:06:37;;;;;;;9.07;3.60;;;17.40;91.10;;;;;;5070323;28;20143;-86
2021/07/05 08:09:05;;;;;;;6.03;3.08;;;17.40;91.20;;;;;;5072600;28;20182;-87
2021/07/05 08:11:31;;;;;;;7.55;2.83;;;17.30;91.40;;;;;;5071520;28;20458;-88
2021/07/05 08:13:59;;;;;;;7.30;3.00;;;17.30;91.30;;;;;;5069548;28;20059;-85
2021/07/05 08:16:24;;;;;;;6.43;2.90;;;17.30;91.30;;;;;;5072556;28;20204;-88
2021/07/05 08:18:50;;;;;;;7.47;2.22;;;17.30;91.80;;;;;;5071811;28;20142;-88
2021/07/05 08:21:17;;;;;;;5.57;2.70;;;17.30;91.50;;;;;;5071721;28;20472;-88
2021/07/05 08:23:43;;;;;;;6.28;2.72;;;17.30;91.60;;;;;;5072431;28;20079;-88
2021/07/05 08:26:09;;;;;;;5.35;2.55;;;17.30;91.60;;;;;;5071401;28;20056;-87
2021/07/05 08:28:35;;;;;;;5.70;2.80;;;17.30;91.50;;;;;;5074670;28;20049;-88
2021/07/05 08:31:01;;;;;;;6.45;2.95;;;17.30;91.60;;;;;;5071527;28;20106;-87
2021/07/05 08:33:28;;;;;;;6.90;2.88;;;17.40;91.70;;;;;;5071748;28;20080;-87
2021/07/05 08:35:54;;;;;;;6.97;3.05;;;17.40;91.70;;;;;;5072180;28;20055;-88
2021/07/05 08:38:20;;;;;;;8.60;3.22;;;17.50;91.70;;;;;;5072250;28;20048;-87
2021/07/05 08:40:46;;;;;;;8.50;3.72;;;17.50;91.70;;;;;;5071504;28;20140;-87
2021/07/05 08:43:12;;;;;;;12.35;5.00;;;17.50;91.80;;;;;;5070171;28;20048;-85
2021/07/05 08:45:39;;;;;;;9.00;4.25;;;17.60;92.10;;;;;;5067329;28;20049;-87
2021/07/05 08:48:07;;;;;;;11.10;5.13;;;17.60;92.20;;;;;;5072744;28;20056;-87
2021/07/05 08:50:33;;;;;;;6.80;3.38;;;17.70;92.10;;;;;;5067174;28;20388;-87
2021/07/05 08:52:58;;;;;;;11.30;5.18;;;17.80;91.90;;;;;;5069622;28;20040;-86
2021/07/05 08:55:28;;;;;;;8.77;4.00;;;17.80;91.80;;;;;;5068112;28;20049;-86
2021/07/05 08:57:55;;;;;;;11.68;6.93;;;17.80;91.80;;;;;;5067819;28;20205;-86
2021/07/05 09:00:21;;;;;;;11.77;5.00;;;17.80;91.80;;;;;;5071621;28;20117;-88
2021/07/05 09:02:48;;;;;;;9.13;4.57;;;17.90;91.70;;;;;;5081055;28;20269;-87
2021/07/05 09:05:15;;;;;;;8.27;4.28;;;17.90;91.60;;;;;;5075642;28;20590;-88
2021/07/05 09:07:57;;;;;;;8.18;5.55;;;17.90;91.50;;;;;;5074489;28;20047;-88
2021/07/05 09:10:24;;;;;;;12.70;6.35;;;18.00;91.30;;;;;;5071246;28;20075;-88
2021/07/05 09:13:06;;;;;;;9.05;4.35;;;18.00;91.20;;;;;;5071307;28;20047;-87
2021/07/05 09:15:40;;;;;;;12.05;6.93;;;18.00;91.10;;;;;;5068195;28;20057;-87
2021/07/05 09:18:25;;;;;;;9.57;5.90;;;18.10;91.20;;;;;;5070415;28;20049;-87
2021/07/05 09:20:52;;;;;;;10.63;6.25;;;18.10;91.00;;;;;;5070448;28;20071;-88
2021/07/05 09:23:18;;;;;;;10.68;5.68;;;18.10;91.10;;;;;;5071760;28;20048;-87
2021/07/05 09:25:53;;;;;;;9.40;5.18;;;18.10;91.10;;;;;;5070353;28;20048;-86
2021/07/05 09:28:22;;;;;;;12.90;6.28;;;18.10;91.00;;;;;;5070886;28;20121;-88
2021/07/05 09:30:54;;;;;;;14.73;6.38;;;18.10;91.10;;;;;;5074290;28;20129;-89
2021/07/05 09:33:23;;;;;;;11.68;6.07;;;18.10;91.10;;;;;;5076075;28;20049;-87
2021/07/05 09:35:54;;;;;;;12.13;7.45;;;18.10;91.00;;;;;;5075370;28;20058;-87
2021/07/05 09:38:34;;;;;;;14.55;8.15;;;18.10;91.10;;;;;;5075832;28;20403;-87
2021/07/05 09:41:18;;;;;;;12.68;8.73;;;18.10;91.10;;;;;;5075782;28;20048;-88
2021/07/05 09:43:44;;;;;;;15.32;8.98;;;18.10;91.20;;;;;;5074167;28;20123;-83
2021/07/05 09:46:11;;;;;;;12.45;8.70;;;18.10;91.40;;;;;;5075666;28;20051;-87
2021/07/05 09:48:45;;;;;;;11.32;7.40;;;18.20;91.60;;;;;;5075623;28;20135;-93
2021/07/05 09:51:14;;;;;;;18.15;8.52;;;18.20;91.40;;;;;;5076612;28;20098;-87
2021/07/05 09:53:45;;;;;;;15.07;8.75;;;18.30;91.30;;;;;;5075442;28;20040;-90
2021/07/05 09:56:25;;;;;;;10.98;7.07;;;18.40;91.10;;;;;;5074311;28;20098;-89
2021/07/05 09:59:15;;;;;;;16.30;8.77;;;18.40;90.90;;;;;;5071722;28;20056;-90
2021/07/05 10:01:46;;;;;;;17.83;9.57;;;18.40;91.10;;;;;;5076030;28;20087;-93
2021/07/05 10:04:27;;;;;;;15.43;8.77;;;18.50;91.10;;;;;;5075819;28;20054;-92
2021/07/05 10:06:59;;;;;;;14.65;8.95;;;18.50;91.00;;;;;;5078775;28;20048;-89
2021/07/05 10:09:47;;;;;;;12.82;8.02;;;18.60;90.70;;;;;;5076690;28;20079;-90
2021/07/05 10:12:29;;;;;;;15.80;7.97;;;18.60;90.40;;;;;;5075653;28;20068;-87
2021/07/05 10:14:56;;;;;;;13.57;7.23;;;18.70;90.40;;;;;;5074105;28;20060;-87
2021/07/05 10:17:23;;;;;;;15.35;7.75;;;18.80;90.40;;;;;;5074198;28;20051;-82
2021/07/05 10:19:49;;;;;;;15.82;7.63;;;18.80;90.10;;;;;;5074160;28;20040;-83
2021/07/05 10:22:16;;;;;;;13.38;7.63;;;18.90;90.30;;;;;;5074759;28;20391;-86
2021/07/05 10:24:44;;;;;;;12.38;6.82;;;19.00;90.10;;;;;;5073763;28;20048;-85
2021/07/05 10:27:14;;;;;;;12.30;6.78;;;19.00;90.00;;;;;;5073952;28;20102;-87
2021/07/05 10:29:41;;;;;;;19.83;7.43;;;19.10;89.70;;;;;;5070419;28;20408;-88
2021/07/05 10:32:08;;;;;;;12.07;6.80;;;19.20;89.10;;;;;;5075198;28;20465;-89
2021/07/05 10:34:37;;;;;;;12.48;7.15;;;19.20;89.20;;;;;;5075440;28;20118;-90
2021/07/05 10:37:09;;;;;;;14.52;6.90;;;19.30;89.70;;;;;;5075881;28;20052;-89
2021/07/05 10:39:36;;;;;;;12.25;7.25;;;19.40;89.10;;;;;;5075397;28;20072;-90
2021/07/05 10:42:02;;;;;;;13.48;7.55;;;19.40;89.30;;;;;;5075561;28;20119;-90
2021/07/05 10:44:48;;;;;;;13.85;7.65;;;19.50;89.10;;;;;;5076319;28;20045;-92
2021/07/05 10:47:40;;;;;;;13.30;7.35;;;19.60;88.50;;;;;;5075261;28;20079;-89
2021/07/05 10:50:06;;;;;;;13.98;7.43;;;19.60;88.00;;;;;;5075080;28;20070;-91
2021/07/05 10:52:48;;;;;;;13.75;7.38;;;19.60;87.40;;;;;;5072759;28;20048;-94
2021/07/05 10:55:44;;;;;;;13.88;7.45;;;19.60;87.00;;;;;;5077902;28;20064;-94
2021/07/05 10:58:25;;;;;;;13.10;7.57;;;19.60;87.40;;;;;;5077668;28;20040;-93
2021/07/05 11:00:57;;;;;;;13.32;7.40;;;19.60;88.00;;;;;;5076964;28;20040;-92
2021/07/05 11:03:44;;;;;;;12.65;7.32;;;19.70;88.40;;;;;;5077009;28;20080;-91
2021/07/05 11:06:22;;;;;;;11.50;7.07;;;19.70;88.10;;;;;;5078195;28;20048;-93
2021/07/05 11:08:52;;;;;;;11.95;6.55;;;19.70;86.90;;;;;;5078834;28;20056;-92
2021/07/05 11:11:23;;;;;;;13.05;6.45;;;19.70;87.10;;;;;;5079593;28;20052;-94
2021/07/05 11:14:25;;;;;;;13.10;6.70;;;19.80;87.30;;;;;;5080652;28;20098;-93
2021/07/05 11:17:04;;;;;;;11.30;5.97;;;19.80;86.40;;;;;;5058008;28;20041;-91
2021/07/05 11:19:47;;;;;;;12.85;6.43;;;19.90;86.10;;;;;;5071720;28;20059;-92
2021/07/05 11:22:26;;;;;;;13.43;7.63;;;19.90;85.80;;;;;;5075134;28;20051;-91
2021/07/05 11:25:04;;;;;;;11.23;7.25;;;19.90;86.20;;;;;;5077192;28;20303;-95
2021/07/05 11:27:58;;;;;;;14.30;7.05;;;20.00;86.40;;;;;;5076569;28;20049;-94
2021/07/05 11:30:26;;;;;;;15.48;6.85;;;20.10;85.60;;;;;;5073215;28;20048;-95
2021/07/05 11:33:02;;;;;;;17.33;7.32;;;20.20;85.70;;;;;;5075352;28;20053;-92
2021/07/05 11:35:35;;;;;;;14.18;7.18;;;20.20;85.90;;;;;;5074367;28;20504;-95
2021/07/05 11:38:08;;;;;;;14.32;5.90;;;20.30;85.00;;;;;;5076717;28;20116;-95
2021/07/05 11:40:42;;;;;;;12.35;5.70;;;20.30;84.30;;;;;;5075921;28;20117;-90
2021/07/05 11:43:09;;;;;;;11.82;5.30;;;20.40;83.70;;;;;;5075505;28;20051;-94
2021/07/05 11:45:52;;;;;;;10.80;5.00;;;20.40;83.90;;;;;;5075603;28;20438;-94
2021/07/05 11:48:47;;;;;;;10.35;5.25;;;20.50;83.60;;;;;;5072167;28;20175;-91
2021/07/05 11:51:18;;;;;;;11.25;4.72;;;20.50;83.00;;;;;;5072863;28;20056;-96
2021/07/05 11:53:54;;;;;;;13.32;5.13;;;20.60;82.60;;;;;;5071278;28;20059;-93
2021/07/05 11:56:35;;;;;;;9.50;4.20;;;20.70;83.20;;;;;;5076002;28;20053;-91
2021/07/05 11:59:03;;;;;;;12.65;4.55;;;20.80;81.80;;;;;;5075985;28;20044;-92
2021/07/05 12:01:30;;;;;;;10.38;4.07;;;20.80;81.30;;;;;;5064413;28;20048;-91
2021/07/05 12:03:58;;;;;;;11.43;4.97;;;20.90;80.50;;;;;;5075064;28;20476;-91
2021/07/05 12:06:25;;;;;;;12.35;4.07;;;21.00;81.60;;;;;;5074681;28;20041;-90
2021/07/05 12:08:56;;;;;;;11.27;4.90;;;21.00;80.90;;;;;;5074869;28;20094;-92
2021/07/05 12:11:32;;;;;;;9.98;4.53;;;21.10;81.20;;;;;;5074052;28;20052;-91
2021/07/05 12:14:10;;;;;;;11.30;5.20;;;21.20;80.30;;;;;;5074617;28;20113;-92
2021/07/05 12:16:37;;;;;;;14.25;4.93;;;21.20;79.70;;;;;;5074997;28;20052;-92
2021/07/05 12:19:05;;;;;;;14.35;5.35;;;21.30;79.00;;;;;;5075179;28;20392;-90
2021/07/05 12:22:01;;;;;;;8.57;4.18;;;21.40;78.90;;;;;;5074246;28;20053;-94
2021/07/05 12:24:33;;;;;;;14.07;5.00;;;21.40;77.70;;;;;;5070351;28;20052;-93
2021/07/05 12:27:04;;;;;;;11.32;4.55;;;21.40;78.10;;;;;;5074289;28;20060;-91
2021/07/05 12:29:34;;;;;;;10.48;4.60;;;21.50;78.80;;;;;;5073741;28;20048;-94
2021/07/05 12:32:08;;;;;;;10.00;4.45;;;21.50;78.80;;;;;;5078627;28;20425;-92
2021/07/05 12:34:44;;;;;;;11.00;4.10;;;21.50;78.90;;;;;;5053952;28;20049;-92
2021/07/05 12:37:24;;;;;;;11.32;4.28;;;21.60;77.60;;;;;;5055033;28;20076;-92
2021/07/05 12:39:56;;;;;;;11.15;4.40;;;21.60;79.10;;;;;;5054507;28;20075;-90
2021/07/05 12:42:32;;;;;;;10.33;4.30;;;21.60;80.90;;;;;;5056202;28;20053;-90
2021/07/05 12:44:59;;;;;;;8.15;4.25;;;21.60;79.70;;;;;;5075696;28;20048;-90
2021/07/05 12:47:26;;;;;;;13.00;4.72;;;21.60;80.80;;;;;;5094718;28;20048;-93